Time;durP1;ratioP1;P1;durP2;ratioP2;P2;SDS_P1;SDS_P2;PMS_P1;PMS_P2;Temp;Humidity;BMP_temperature;BMP_pressure;BME280_temperature;BME280_humidity;BME280_pressure;Samples;Min_cycle;Max_cycle;Signal;HPM_P1;HPM_P2
2023/08/04 00:00:24;;;;;;;2.03;1.70;;;15.50;99.90;;;;;;5021809;28;20247;-80
2023/08/04 00:02:50;;;;;;;3.80;1.60;;;15.50;99.90;;;;;;5021051;28;20182;-79
2023/08/04 00:05:15;;;;;;;5.17;1.90;;;15.50;99.90;;;;;;5038405;28;20178;-79
2023/08/04 00:07:42;;;;;;;3.03;1.67;;;15.40;99.90;;;;;;5038452;28;20198;-79
2023/08/04 00:10:08;;;;;;;3.20;1.70;;;15.50;99.90;;;;;;5020768;28;20178;-79
2023/08/04 00:12:34;;;;;;;2.03;1.73;;;15.40;99.90;;;;;;5021442;28;20170;-79
2023/08/04 00:15:00;;;;;;;3.63;1.90;;;15.50;99.90;;;;;;5021976;28;20182;-79
2023/08/04 00:17:26;;;;;;;2.47;1.83;;;15.40;99.90;;;;;;5038763;28;20206;-79
2023/08/04 00:19:52;;;;;;;2.20;1.63;;;15.40;99.90;;;;;;5021214;28;20182;-79
2023/08/04 00:22:18;;;;;;;2.00;1.90;;;15.40;99.90;;;;;;5037142;28;20177;-78
2023/08/04 00:24:43;;;;;;;2.90;2.00;;;15.40;99.90;;;;;;5021017;28;20198;-79
2023/08/04 00:27:09;;;;;;;1.97;1.73;;;15.40;99.90;;;;;;5021027;28;20205;-79
2023/08/04 00:29:35;;;;;;;1.90;1.60;;;15.40;99.90;;;;;;5038988;28;20182;-79
2023/08/04 00:32:01;;;;;;;3.37;1.80;;;15.40;99.90;;;;;;5021332;28;20170;-78
2023/08/04 00:34:26;;;;;;;2.73;2.10;;;15.40;99.90;;;;;;5038650;28;20554;-79
2023/08/04 00:36:52;;;;;;;3.43;2.00;;;15.40;99.90;;;;;;5021489;28;20214;-79
2023/08/04 00:39:17;;;;;;;2.00;1.90;;;15.50;99.90;;;;;;5021344;28;20202;-79
2023/08/04 00:41:43;;;;;;;2.77;2.17;;;15.50;99.90;;;;;;5020706;28;20561;-79
2023/08/04 00:44:10;;;;;;;3.07;1.93;;;15.50;99.90;;;;;;5038976;28;20279;-79
2023/08/04 00:46:36;;;;;;;3.43;2.20;;;15.50;99.90;;;;;;5039129;28;20616;-78
2023/08/04 00:49:03;;;;;;;2.83;2.00;;;15.50;99.90;;;;;;5038137;28;20175;-79
2023/08/04 00:51:33;;;;;;;3.53;2.23;;;15.60;99.90;;;;;;5038149;28;20182;-79
2023/08/04 00:53:59;;;;;;;2.20;2.00;;;15.50;99.90;;;;;;5021050;28;20238;-79
2023/08/04 00:56:28;;;;;;;3.33;2.17;;;15.60;99.90;;;;;;5024447;28;20202;-79
2023/08/04 00:58:54;;;;;;;3.63;2.27;;;15.60;99.90;;;;;;5042684;28;20255;-79
2023/08/04 01:01:19;;;;;;;3.37;2.37;;;15.60;99.90;;;;;;5042819;28;20182;-79
2023/08/04 01:03:45;;;;;;;2.83;2.50;;;15.60;99.90;;;;;;5024743;28;20198;-79
2023/08/04 01:06:14;;;;;;;4.17;2.63;;;15.60;99.90;;;;;;5042676;28;20236;-81
2023/08/04 01:08:46;;;;;;;3.87;2.50;;;15.60;99.90;;;;;;5025480;28;20645;-79
2023/08/04 01:11:17;;;;;;;3.43;2.40;;;15.60;99.90;;;;;;5024966;28;20174;-79
2023/08/04 01:13:45;;;;;;;3.77;2.50;;;15.60;99.90;;;;;;5024762;28;20182;-78
2023/08/04 01:16:11;;;;;;;3.20;2.70;;;15.60;99.90;;;;;;5024979;28;20182;-81
2023/08/04 01:18:36;;;;;;;2.73;2.53;;;15.60;99.90;;;;;;5024536;28;20201;-79
2023/08/04 01:21:03;;;;;;;3.27;2.47;;;15.60;99.90;;;;;;5024375;28;20268;-79
2023/08/04 01:23:29;;;;;;;3.73;2.70;;;15.70;99.90;;;;;;5042341;28;20735;-79
2023/08/04 01:25:54;;;;;;;4.63;2.70;;;15.60;99.90;;;;;;5042022;28;20175;-79
2023/08/04 01:28:21;;;;;;;4.27;2.50;;;15.70;99.90;;;;;;5024303;28;20194;-79
2023/08/04 01:30:50;;;;;;;2.87;2.53;;;15.70;99.90;;;;;;5041677;28;20178;-79
2023/08/04 01:33:16;;;;;;;4.90;2.80;;;15.70;99.90;;;;;;5023887;28;20178;-81
2023/08/04 01:35:42;;;;;;;3.67;3.03;;;15.70;99.90;;;;;;5024176;28;20211;-79
2023/08/04 01:38:09;;;;;;;4.40;3.00;;;15.70;99.90;;;;;;5024672;28;20281;-80
2023/08/04 01:40:35;;;;;;;3.20;2.90;;;15.70;99.90;;;;;;5024470;28;20182;-79
2023/08/04 01:43:00;;;;;;;3.33;2.80;;;15.70;99.90;;;;;;5041505;28;20182;-79
2023/08/04 01:45:26;;;;;;;100.37;6.10;;;15.70;99.90;;;;;;5041401;28;20189;-81
2023/08/04 01:47:52;;;;;;;27.13;4.73;;;15.70;99.90;;;;;;5024603;28;20195;-79
2023/08/04 01:50:17;;;;;;;3.93;3.00;;;15.70;99.90;;;;;;5041351;28;20551;-79
2023/08/04 01:52:43;;;;;;;4.07;3.23;;;15.70;99.90;;;;;;5041833;28;20248;-79
2023/08/04 01:55:09;;;;;;;4.77;3.00;;;15.70;99.90;;;;;;5042358;28;20217;-80
2023/08/04 01:57:34;;;;;;;4.57;2.80;;;15.70;99.90;;;;;;5024198;28;20194;-79
2023/08/04 02:00:00;;;;;;;3.70;2.20;;;15.70;99.90;;;;;;5023582;28;20170;-79
2023/08/04 02:02:25;;;;;;;3.17;2.50;;;15.70;99.90;;;;;;5023756;28;20182;-80
2023/08/04 02:04:51;;;;;;;3.90;3.27;;;15.70;99.90;;;;;;5041185;28;20205;-79
2023/08/04 02:07:16;;;;;;;4.37;3.47;;;15.60;99.90;;;;;;5023346;28;20194;-79
2023/08/04 02:09:42;;;;;;;5.93;3.50;;;15.60;99.90;;;;;;5041714;28;20751;-80
2023/08/04 02:12:08;;;;;;;5.63;4.03;;;15.60;99.90;;;;;;5024191;28;20169;-80
2023/08/04 02:14:33;;;;;;;4.50;3.90;;;15.50;99.90;;;;;;5023457;28;20225;-80
2023/08/04 02:16:59;;;;;;;6.23;4.30;;;15.40;99.90;;;;;;5041612;28;20201;-79
2023/08/04 02:19:25;;;;;;;7.03;4.00;;;15.40;99.90;;;;;;5041512;28;20186;-79
2023/08/04 02:22:14;;;;;;;4.77;3.53;;;15.40;99.90;;;;;;5098414;27;1220419;-78
2023/08/04 02:24:39;;;;;;;4.60;3.27;;;15.40;99.90;;;;;;5117049;28;20168;-78
2023/08/04 02:27:06;;;;;;;4.53;3.97;;;15.40;99.90;;;;;;5108652;28;20670;-78
2023/08/04 02:29:31;;;;;;;5.93;3.60;;;15.50;99.90;;;;;;5078457;28;20544;-77
2023/08/04 02:31:57;;;;;;;4.10;3.50;;;15.40;99.90;;;;;;5096684;28;20234;-78
2023/08/04 02:34:22;;;;;;;5.80;3.57;;;15.40;99.90;;;;;;5074866;28;20183;-79
2023/08/04 02:36:48;;;;;;;5.00;3.40;;;15.40;99.90;;;;;;5072109;28;20231;-79
2023/08/04 02:39:13;;;;;;;4.93;3.63;;;15.40;99.90;;;;;;5072184;28;20195;-79
2023/08/04 02:41:39;;;;;;;5.03;3.87;;;15.40;99.90;;;;;;5072130;28;20234;-79
2023/08/04 02:44:06;;;;;;;4.97;3.60;;;15.40;99.90;;;;;;5072406;28;20566;-80
2023/08/04 02:46:32;;;;;;;5.63;4.30;;;15.40;99.90;;;;;;5090377;28;20238;-79
2023/08/04 02:48:57;;;;;;;5.70;4.10;;;15.40;99.90;;;;;;5072033;28;20180;-79
2023/08/04 02:51:23;;;;;;;4.57;3.73;;;15.40;99.90;;;;;;5071754;28;20668;-79
2023/08/04 02:53:49;;;;;;;6.67;3.97;;;15.40;99.90;;;;;;5090096;28;20168;-79
2023/08/04 02:56:17;;;;;;;4.07;3.77;;;15.40;99.90;;;;;;5072667;28;20740;-79
2023/08/04 02:58:44;;;;;;;5.40;4.33;;;15.40;99.90;;;;;;5072076;28;20180;-79
2023/08/04 03:01:10;;;;;;;6.00;4.13;;;15.40;99.90;;;;;;5089886;28;20202;-80
2023/08/04 03:03:36;;;;;;;6.10;4.23;;;15.40;99.90;;;;;;5071939;28;20650;-79
2023/08/04 03:06:02;;;;;;;5.80;3.80;;;15.40;99.90;;;;;;5071930;28;20165;-79
2023/08/04 03:08:28;;;;;;;5.00;4.00;;;15.40;99.90;;;;;;5071483;28;20280;-79
2023/08/04 03:10:54;;;;;;;4.20;3.80;;;15.40;99.90;;;;;;5071715;28;20169;-78
2023/08/04 03:13:21;;;;;;;8.87;4.30;;;15.40;99.90;;;;;;5089846;28;20196;-79
2023/08/04 03:15:54;;;;;;;3.90;3.50;;;15.40;99.90;;;;;;5071716;28;20258;-79
2023/08/04 03:18:19;;;;;;;6.93;3.93;;;15.40;99.90;;;;;;5089531;28;20192;-79
2023/08/04 03:20:45;;;;;;;4.67;4.10;;;15.40;99.90;;;;;;5089510;28;20210;-79
2023/08/04 03:23:10;;;;;;;5.57;3.87;;;15.40;99.90;;;;;;5089500;28;20165;-79
2023/08/04 03:25:36;;;;;;;5.53;4.10;;;15.40;99.90;;;;;;5089569;28;20238;-79
2023/08/04 03:28:01;;;;;;;4.43;3.87;;;15.40;99.90;;;;;;5071289;28;20196;-79
2023/08/04 03:30:27;;;;;;;7.37;4.10;;;15.40;99.90;;;;;;5071126;28;20188;-79
2023/08/04 03:32:53;;;;;;;6.13;4.50;;;15.40;99.90;;;;;;5062011;28;20568;-79
2023/08/04 03:35:18;;;;;;;5.00;4.50;;;15.40;99.90;;;;;;5058211;28;20181;-79
2023/08/04 03:37:44;;;;;;;4.40;3.83;;;15.40;99.90;;;;;;5057995;28;20200;-79
2023/08/04 03:40:10;;;;;;;6.07;4.13;;;15.40;99.90;;;;;;5057937;28;20211;-79
2023/08/04 03:42:38;;;;;;;5.07;4.57;;;15.40;99.90;;;;;;5057721;28;20173;-79
2023/08/04 03:45:05;;;;;;;5.20;4.27;;;15.50;99.90;;;;;;5075660;28;20179;-79
2023/08/04 03:47:31;;;;;;;6.37;4.77;;;15.50;99.90;;;;;;5075053;28;20250;-79
2023/08/04 03:49:56;;;;;;;5.50;4.27;;;15.50;99.90;;;;;;5075694;28;20595;-79
2023/08/04 03:52:23;;;;;;;6.40;4.20;;;15.50;99.90;;;;;;5057951;28;20176;-79
2023/08/04 03:54:48;;;;;;;4.93;4.43;;;15.50;99.90;;;;;;5057465;28;20183;-79
2023/08/04 03:57:14;;;;;;;6.57;3.90;;;15.40;99.90;;;;;;5058011;28;20189;-79
2023/08/04 03:59:39;;;;;;;4.33;3.53;;;15.40;99.90;;;;;;5075189;28;20605;-79
2023/08/04 04:02:05;;;;;;;3.90;3.47;;;15.30;99.90;;;;;;5057431;28;20205;-79
2023/08/04 04:04:31;;;;;;;7.73;4.00;;;15.30;99.90;;;;;;5057281;28;20205;-79
2023/08/04 04:06:56;;;;;;;4.87;3.63;;;15.20;99.90;;;;;;5057666;28;20217;-79
2023/08/04 04:09:22;;;;;;;4.33;3.73;;;15.30;99.90;;;;;;5057436;28;20173;-79
2023/08/04 04:11:48;;;;;;;3.97;3.30;;;15.30;99.90;;;;;;5074819;28;20351;-79
2023/08/04 04:14:13;;;;;;;6.47;3.90;;;15.30;99.90;;;;;;5057602;28;20173;-79
2023/08/04 04:16:39;;;;;;;6.77;3.67;;;15.20;99.90;;;;;;5056836;28;20197;-79
2023/08/04 04:19:04;;;;;;;5.63;3.50;;;15.20;99.90;;;;;;5057323;28;20661;-79
2023/08/04 04:21:30;;;;;;;4.07;3.30;;;15.20;99.90;;;;;;5056889;28;20216;-79
2023/08/04 04:23:56;;;;;;;4.87;3.37;;;15.20;99.90;;;;;;5075091;28;20176;-79
2023/08/04 04:26:21;;;;;;;3.63;3.20;;;15.20;99.90;;;;;;5074948;28;20311;-79
2023/08/04 04:28:47;;;;;;;5.17;3.30;;;15.20;99.90;;;;;;5057045;28;20543;-79
2023/08/04 04:31:12;;;;;;;4.00;3.37;;;15.20;99.90;;;;;;5074977;28;20177;-79
2023/08/04 04:33:38;;;;;;;4.63;3.20;;;15.20;99.90;;;;;;5056890;28;20177;-80
2023/08/04 04:36:04;;;;;;;4.53;3.40;;;15.20;99.90;;;;;;5056940;28;20184;-79
2023/08/04 04:38:29;;;;;;;4.17;3.60;;;15.20;99.90;;;;;;5056710;28;20201;-79
2023/08/04 04:41:00;;;;;;;5.43;3.47;;;15.20;99.90;;;;;;5056513;28;20204;-79
2023/08/04 04:43:27;;;;;;;4.33;3.50;;;15.30;99.90;;;;;;5055705;28;20539;-79
2023/08/04 04:45:53;;;;;;;4.03;3.20;;;15.30;99.90;;;;;;5056459;28;20177;-79
2023/08/04 04:48:19;;;;;;;3.67;3.10;;;15.30;99.90;;;;;;5074348;28;20721;-78
2023/08/04 04:50:45;;;;;;;5.70;3.77;;;15.30;99.90;;;;;;5074184;28;20212;-79
2023/08/04 04:53:11;;;;;;;3.57;3.20;;;15.30;99.90;;;;;;5074665;28;20204;-79
2023/08/04 04:55:37;;;;;;;4.87;2.90;;;15.20;99.90;;;;;;5056551;28;20205;-79
2023/08/04 04:58:02;;;;;;;5.23;3.00;;;15.30;99.90;;;;;;5056351;28;20200;-79
2023/08/04 05:00:28;;;;;;;4.27;3.17;;;15.30;99.90;;;;;;5056262;28;20196;-79
2023/08/04 05:02:53;;;;;;;4.03;3.30;;;15.40;99.90;;;;;;5074182;28;20161;-79
2023/08/04 05:05:19;;;;;;;5.93;3.63;;;15.40;99.90;;;;;;5074152;28;20254;-79
2023/08/04 05:07:45;;;;;;;5.40;3.60;;;15.40;99.90;;;;;;5056521;28;20188;-79
2023/08/04 05:10:10;;;;;;;5.00;3.47;;;15.40;99.90;;;;;;5056269;28;20168;-82
2023/08/04 05:12:37;;;;;;;5.00;3.60;;;15.50;99.90;;;;;;5074723;28;20248;-81
2023/08/04 05:15:03;;;;;;;5.93;3.90;;;15.50;99.90;;;;;;5076891;28;20173;-83
2023/08/04 05:17:28;;;;;;;4.17;3.77;;;15.50;99.90;;;;;;5058245;28;20242;-81
2023/08/04 05:19:54;;;;;;;5.00;4.10;;;15.50;99.90;;;;;;5076872;28;20184;-81
2023/08/04 05:22:20;;;;;;;4.60;4.20;;;15.50;99.90;;;;;;5076294;28;20210;-82
2023/08/04 05:24:45;;;;;;;5.73;4.50;;;15.60;99.90;;;;;;5056719;28;20170;-81
2023/08/04 05:27:11;;;;;;;7.77;4.43;;;15.70;99.90;;;;;;5057465;28;20200;-81
2023/08/04 05:29:37;;;;;;;5.17;4.43;;;15.70;99.90;;;;;;5057169;28;20180;-79
2023/08/04 05:32:03;;;;;;;6.93;4.20;;;15.60;99.90;;;;;;5075136;28;20554;-81
2023/08/04 05:34:28;;;;;;;5.37;4.60;;;15.70;99.90;;;;;;5057439;28;20177;-81
2023/08/04 05:36:54;;;;;;;6.27;4.30;;;15.70;99.90;;;;;;5058646;28;20190;-82
2023/08/04 05:39:19;;;;;;;6.13;4.83;;;15.70;99.90;;;;;;5058504;28;20180;-82
2023/08/04 05:41:45;;;;;;;5.60;4.43;;;15.80;99.90;;;;;;5076326;28;20357;-82
2023/08/04 05:44:11;;;;;;;6.70;5.07;;;15.90;99.90;;;;;;5076475;28;20195;-81
2023/08/04 05:46:37;;;;;;;5.27;4.77;;;15.80;99.90;;;;;;5077699;28;20201;-82
2023/08/04 05:49:03;;;;;;;6.67;5.00;;;15.90;99.90;;;;;;5059354;28;20173;-82
2023/08/04 05:51:29;;;;;;;6.57;4.90;;;15.90;99.90;;;;;;5078153;28;20187;-81
2023/08/04 05:53:54;;;;;;;5.43;4.80;;;16.00;99.90;;;;;;5076536;28;20180;-83
2023/08/04 05:56:20;;;;;;;6.67;4.60;;;16.00;99.90;;;;;;5076426;28;20184;-81
2023/08/04 05:58:45;;;;;;;4.73;4.23;;;16.00;99.90;;;;;;5076941;28;20179;-81
2023/08/04 06:01:11;;;;;;;9.20;4.83;;;16.00;99.90;;;;;;5057666;28;20259;-81
2023/08/04 06:03:36;;;;;;;4.93;4.43;;;16.00;99.90;;;;;;5076573;28;20538;-82
2023/08/04 06:06:03;;;;;;;6.13;4.27;;;16.00;99.90;;;;;;5075640;28;20165;-81
2023/08/04 06:08:28;;;;;;;5.77;4.60;;;16.10;99.90;;;;;;5074007;28;20232;-81
2023/08/04 06:10:54;;;;;;;5.53;4.50;;;16.10;99.90;;;;;;5056120;28;20181;-81
2023/08/04 06:13:20;;;;;;;5.30;4.37;;;16.10;99.90;;;;;;5074298;28;20188;-82
2023/08/04 06:15:47;;;;;;;7.23;4.10;;;16.20;99.90;;;;;;5056176;28;20177;-82
2023/08/04 06:18:13;;;;;;;5.37;3.97;;;16.20;99.90;;;;;;5073808;28;20571;-82
2023/08/04 06:20:38;;;;;;;4.83;3.57;;;16.20;99.90;;;;;;5073684;28;20216;-82
2023/08/04 06:23:04;;;;;;;3.97;3.53;;;16.30;99.90;;;;;;5073831;28;20228;-81
2023/08/04 06:25:29;;;;;;;6.13;3.47;;;16.30;99.90;;;;;;5074245;28;20184;-81
2023/08/04 06:27:55;;;;;;;4.93;3.30;;;16.30;99.90;;;;;;5073938;28;20192;-82
2023/08/04 06:30:21;;;;;;;4.20;3.10;;;16.40;99.90;;;;;;5055809;28;20605;-81
2023/08/04 06:32:47;;;;;;;7.23;3.00;;;16.30;99.90;;;;;;5056173;28;20655;-82
2023/08/04 06:35:13;;;;;;;5.37;3.40;;;16.30;99.90;;;;;;5073862;28;20218;-81
2023/08/04 06:37:38;;;;;;;5.27;3.43;;;16.40;99.90;;;;;;5074191;28;20209;-82
2023/08/04 06:40:04;;;;;;;5.67;3.33;;;16.40;99.90;;;;;;5073962;28;20184;-81
2023/08/04 06:42:30;;;;;;;4.27;2.93;;;16.40;99.90;;;;;;5074312;28;20628;-81
2023/08/04 06:44:56;;;;;;;4.53;2.97;;;16.40;99.90;;;;;;5056085;28;20180;-81
2023/08/04 06:47:21;;;;;;;6.30;2.93;;;16.40;99.90;;;;;;5073340;28;20192;-81
2023/08/04 06:49:47;;;;;;;5.37;3.17;;;16.30;99.90;;;;;;5073539;28;20175;-81
2023/08/04 06:52:12;;;;;;;4.30;3.60;;;16.40;99.90;;;;;;5055631;28;20180;-83
2023/08/04 06:54:38;;;;;;;7.03;3.27;;;16.40;99.90;;;;;;5073658;28;20687;-81
2023/08/04 06:57:04;;;;;;;5.30;3.00;;;16.40;99.90;;;;;;5055402;28;20197;-82
2023/08/04 06:59:30;;;;;;;4.90;3.50;;;16.50;99.90;;;;;;5073492;28;20174;-81
2023/08/04 07:01:55;;;;;;;3.87;2.90;;;16.60;99.90;;;;;;5055475;28;20291;-82
2023/08/04 07:04:21;;;;;;;3.50;2.60;;;16.60;99.90;;;;;;5055083;28;20169;-83
2023/08/04 07:06:47;;;;;;;3.23;2.93;;;16.60;99.90;;;;;;5055734;28;20192;-81
2023/08/04 07:09:12;;;;;;;4.53;2.73;;;16.70;99.90;;;;;;5077411;28;20178;-82
2023/08/04 07:11:38;;;;;;;4.27;3.00;;;16.80;99.90;;;;;;5059219;28;20204;-81
2023/08/04 07:14:03;;;;;;;5.20;2.63;;;16.90;99.90;;;;;;5059079;28;20216;-82
2023/08/04 07:16:29;;;;;;;4.00;2.67;;;16.90;99.90;;;;;;5059251;28;20225;-81
2023/08/04 07:18:54;;;;;;;3.53;2.50;;;17.00;99.90;;;;;;5058951;28;20272;-81
2023/08/04 07:21:20;;;;;;;3.77;2.50;;;17.00;99.90;;;;;;5059457;28;20752;-81
2023/08/04 07:23:46;;;;;;;4.87;2.60;;;17.10;99.90;;;;;;5058932;28;20165;-81
2023/08/04 07:26:11;;;;;;;3.33;2.40;;;17.20;99.90;;;;;;5059108;28;20772;-81
2023/08/04 07:28:37;;;;;;;65.43;7.40;;;17.20;99.90;;;;;;5076762;28;20173;-81
2023/08/04 07:31:07;;;;;;;3.63;2.70;;;17.30;99.90;;;;;;5058543;28;20303;-82
2023/08/04 07:33:33;;;;;;;3.63;2.67;;;17.30;99.90;;;;;;5076807;28;20177;-82
2023/08/04 07:35:59;;;;;;;1.73;1.27;;;17.20;99.90;;;;;;5058752;28;20184;-82
2023/08/04 07:38:27;;;;;;;3.63;2.50;;;17.20;99.90;;;;;;5059010;28;20196;-82
2023/08/04 07:40:53;;;;;;;2.83;2.53;;;17.30;99.90;;;;;;5076325;28;20204;-82
2023/08/04 07:43:18;;;;;;;4.90;2.53;;;17.40;99.90;;;;;;5076767;28;20556;-81
2023/08/04 07:45:44;;;;;;;77.53;13.80;;;17.40;99.90;;;;;;5058858;28;20165;-81
2023/08/04 07:48:15;;;;;;;1.73;1.63;;;17.50;99.90;;;;;;5076887;28;20192;-82
2023/08/04 07:50:45;;;;;;;4.17;2.00;;;17.50;99.90;;;;;;5077153;28;20262;-82
2023/08/04 07:53:11;;;;;;;3.43;1.97;;;17.50;99.90;;;;;;5059475;28;20208;-81
2023/08/04 07:55:39;;;;;;;3.03;1.73;;;17.50;99.90;;;;;;5058918;28;20177;-81
2023/08/04 07:58:06;;;;;;;3.23;1.80;;;17.50;99.90;;;;;;5058802;28;20201;-82
2023/08/04 08:00:31;;;;;;;5.53;2.07;;;17.60;99.90;;;;;;5076788;28;20196;-82
2023/08/04 08:02:57;;;;;;;1.83;1.70;;;17.60;99.90;;;;;;5058949;28;20177;-82
2023/08/04 08:05:23;;;;;;;3.70;2.00;;;17.50;99.90;;;;;;5058745;28;20177;-82
2023/08/04 08:07:49;;;;;;;2.63;1.70;;;17.50;99.90;;;;;;5077193;28;20197;-82
2023/08/04 08:10:14;;;;;;;2.07;1.77;;;17.50;99.90;;;;;;5058453;28;20219;-82
2023/08/04 08:12:40;;;;;;;3.63;1.60;;;17.50;99.90;;;;;;5077310;28;20177;-82
2023/08/04 08:15:06;;;;;;;2.93;1.70;;;17.60;99.90;;;;;;5077162;28;20169;-81
2023/08/04 08:17:32;;;;;;;1.90;1.70;;;17.60;99.90;;;;;;5058815;28;20190;-81
2023/08/04 08:19:58;;;;;;;1.50;1.40;;;17.70;99.90;;;;;;5077314;28;20589;-83
2023/08/04 08:22:24;;;;;;;2.43;1.80;;;17.80;99.90;;;;;;5077822;28;20802;-81
2023/08/04 08:24:53;;;;;;;1.90;1.47;;;17.80;99.90;;;;;;5076572;28;20219;-82
2023/08/04 08:27:19;;;;;;;1.60;1.50;;;17.80;99.90;;;;;;5058501;28;20216;-82
2023/08/04 08:29:45;;;;;;;1.67;1.57;;;17.80;99.90;;;;;;5059045;28;20165;-83
2023/08/04 08:32:10;;;;;;;2.10;1.40;;;17.80;99.90;;;;;;5077182;28;20200;-82
2023/08/04 08:34:36;;;;;;;1.70;1.60;;;17.80;99.90;;;;;;5062246;28;20177;-81
2023/08/04 08:37:02;;;;;;;3.40;1.87;;;17.80;99.90;;;;;;5079817;28;20196;-81
2023/08/04 08:39:29;;;;;;;3.57;1.70;;;17.90;99.90;;;;;;5062329;28;20220;-81
2023/08/04 08:41:58;;;;;;;2.60;1.50;;;17.90;99.90;;;;;;5061753;28;20228;-81
2023/08/04 08:44:23;;;;;;;2.77;1.53;;;18.10;99.90;;;;;;5080480;28;20169;-84
2023/08/04 08:46:50;;;;;;;2.07;1.50;;;18.40;99.90;;;;;;5062561;28;20643;-82
2023/08/04 08:49:16;;;;;;;3.77;1.80;;;18.60;99.90;;;;;;5081108;28;20172;-82
2023/08/04 08:51:48;;;;;;;1.70;1.60;;;18.70;99.90;;;;;;5081204;28;20188;-81
2023/08/04 08:54:14;;;;;;;3.07;1.67;;;18.80;99.90;;;;;;5082135;28;20195;-82
2023/08/04 08:56:40;;;;;;;2.50;1.30;;;19.00;1.00;;;;;;5082411;28;20208;-82
2023/08/04 08:59:06;;;;;;;3.87;1.80;;;19.00;1.00;;;;;;5081503;28;20196;-82
2023/08/04 09:01:32;;;;;;;4.97;2.00;;;18.90;99.90;;;;;;5080571;28;20193;-83
2023/08/04 09:04:00;;;;;;;5.23;2.30;;;18.90;1.00;;;;;;5082729;28;20264;-82
2023/08/04 09:06:26;;;;;;;3.70;1.90;;;18.70;99.90;;;;;;5082325;28;20197;-82
2023/08/04 09:08:53;;;;;;;3.47;2.10;;;18.70;99.90;;;;;;5064508;28;20183;-82
2023/08/04 09:11:19;;;;;;;2.83;1.53;;;18.70;1.00;;;;;;5064487;28;20195;-81
2023/08/04 09:13:46;;;;;;;3.00;1.70;;;18.70;1.00;;;;;;5064712;28;20600;-82
2023/08/04 09:16:15;;;;;;;2.65;1.98;;;18.70;1.00;;;;;;5062102;28;20666;-81
2023/08/04 09:18:41;;;;;;;2.75;1.80;;;18.80;1.00;;;;;;5080685;28;20271;-82
2023/08/04 09:21:07;;;;;;;3.00;1.90;;;18.90;1.00;;;;;;5080194;28;20213;-82
2023/08/04 09:23:41;;;;;;;2.88;1.98;;;18.90;99.90;;;;;;5078491;28;20307;-81
2023/08/04 09:26:07;;;;;;;2.97;1.80;;;19.00;1.00;;;;;;5078974;28;20168;-81
2023/08/04 09:28:32;;;;;;;4.57;2.00;;;19.10;99.90;;;;;;5078465;28;20173;-82
2023/08/04 09:31:06;;;;;;;2.20;1.90;;;19.10;1.00;;;;;;5059424;28;20230;-82
2023/08/04 09:33:33;;;;;;;4.47;2.17;;;19.10;99.90;;;;;;5060614;28;20177;-81
2023/08/04 09:36:10;;;;;;;3.20;1.95;;;19.10;99.90;;;;;;5079314;28;20169;-82
2023/08/04 09:38:37;;;;;;;4.20;2.10;;;19.10;99.90;;;;;;5060698;28;20173;-82
2023/08/04 09:41:06;;;;;;;2.92;2.00;;;19.20;62.20;;;;;;5078055;28;20206;-81
2023/08/04 09:43:33;;;;;;;3.78;1.95;;;19.10;99.90;;;;;;5060688;28;20177;-82
2023/08/04 09:46:05;;;;;;;3.53;2.17;;;19.30;99.90;;;;;;5079226;28;20177;-82
2023/08/04 09:48:31;;;;;;;2.33;1.90;;;19.40;1.00;;;;;;5079272;28;20177;-81
2023/08/04 09:51:20;;;;;;;2.58;1.80;;;19.50;99.90;;;;;;5060603;28;20173;-82
2023/08/04 09:53:47;;;;;;;2.60;2.00;;;19.70;99.90;;;;;;5079490;28;20165;-81
2023/08/04 09:56:15;;;;;;;3.03;1.80;;;19.70;99.90;;;;;;5060869;28;20533;-82
2023/08/04 09:58:42;;;;;;;2.65;1.80;;;19.80;99.90;;;;;;5061240;28;20185;-82
2023/08/04 10:01:08;;;;;;;3.58;2.13;;;19.80;1.00;;;;;;5060601;28;20193;-82
2023/08/04 10:03:43;;;;;;;2.53;2.05;;;19.80;99.90;;;;;;5079519;28;20169;-82
2023/08/04 10:06:09;;;;;;;3.30;1.90;;;19.90;99.90;;;;;;5079088;28;20709;-81
2023/08/04 10:08:39;;;;;;;3.15;1.90;;;20.00;1.00;;;;;;5079053;28;20643;-82
2023/08/04 10:11:05;;;;;;;4.45;2.38;;;20.10;1.00;;;;;;5078558;28;20218;-82
2023/08/04 10:13:38;;;;;;;3.97;2.38;;;20.10;1.00;;;;;;5079093;28;20306;-82
2023/08/04 10:16:06;;;;;;;3.33;1.92;;;20.30;99.90;;;;;;5060680;28;20177;-81
2023/08/04 10:19:06;;;;;;;2.70;1.80;;;20.30;99.90;;;;;;5079043;28;20674;-82
2023/08/04 10:21:40;;;;;;;2.00;1.80;;;20.20;99.90;;;;;;5019641;28;20220;-82
2023/08/04 10:24:08;;;;;;;3.20;1.85;;;20.50;8.80;;;;;;5062386;28;20193;-81
2023/08/04 10:26:43;;;;;;;3.22;2.20;;;20.40;1.00;;;;;;5079024;28;20196;-82
2023/08/04 10:29:09;;;;;;;3.72;2.28;;;20.50;99.90;;;;;;5060427;28;20176;-82
2023/08/04 10:31:40;;;;;;;3.72;2.72;;;20.50;1.00;;;;;;5060181;28;20169;-81
2023/08/04 10:34:15;;;;;;;3.72;2.00;;;20.30;99.90;;;;;;5060721;28;20179;-81
2023/08/04 10:37:01;;;;;;;3.47;2.30;;;20.20;1.00;;;;;;5077871;28;20275;-82
2023/08/04 10:39:31;;;;;;;5.70;3.47;;;20.10;1.00;;;;;;5078578;28;20244;-83
2023/08/04 10:41:58;;;;;;;6.00;3.25;;;20.10;98.80;;;;;;5078497;28;20209;-82
2023/08/04 10:44:27;;;;;;;4.15;2.45;;;20.00;81.40;;;;;;5083715;28;20614;-82
2023/08/04 10:46:59;;;;;;;6.72;4.10;;;20.00;99.90;;;;;;5064087;28;20185;-82
2023/08/04 10:49:25;;;;;;;5.25;3.72;;;20.00;99.90;;;;;;5082589;28;20180;-82
2023/08/04 10:51:52;;;;;;;5.72;2.70;;;20.00;1.00;;;;;;5064140;28;20185;-83
2023/08/04 10:54:18;;;;;;;3.97;3.00;;;19.90;1.00;;;;;;5064060;28;20177;-82
2023/08/04 10:56:46;;;;;;;3.15;2.55;;;19.80;72.60;;;;;;5081639;28;20279;-82
2023/08/04 10:59:11;;;;;;;4.03;2.30;;;19.70;1.00;;;;;;5063794;28;20177;-82
2023/08/04 11:01:37;;;;;;;4.03;3.58;;;19.60;1.00;;;;;;5062540;28;20279;-83
2023/08/04 11:04:03;;;;;;;4.15;2.83;;;19.40;99.90;;;;;;5080898;28;20218;-82
2023/08/04 11:06:28;;;;;;;3.65;2.40;;;19.30;1.00;;;;;;5063032;28;20193;-82
2023/08/04 11:08:55;;;;;;;5.53;2.97;;;19.10;1.00;;;;;;5081993;28;20230;-82
2023/08/04 11:11:20;;;;;;;3.47;2.55;;;19.10;1.00;;;;;;5063674;28;20264;-82
2023/08/04 11:13:47;;;;;;;3.90;2.72;;;19.10;1.00;;;;;;5062802;28;20200;-82
2023/08/04 11:16:16;;;;;;;3.17;2.10;;;19.00;1.00;;;;;;5081411;28;20185;-82
2023/08/04 11:18:42;;;;;;;2.78;2.17;;;19.00;1.00;;;;;;5062837;28;20219;-84
2023/08/04 11:21:08;;;;;;;3.95;2.60;;;19.10;1.00;;;;;;5080752;28;20209;-83
2023/08/04 11:23:33;;;;;;;4.30;2.30;;;19.10;1.00;;;;;;5063291;28;20230;-82
2023/08/04 11:25:59;;;;;;;2.67;2.15;;;19.10;1.00;;;;;;5082124;28;20181;-81
2023/08/04 11:28:25;;;;;;;4.20;2.35;;;19.20;1.00;;;;;;5082289;28;20203;-81
2023/08/04 11:31:01;;;;;;;3.75;2.15;;;19.30;1.00;;;;;;5063329;28;20180;-82
2023/08/04 11:33:27;;;;;;;3.30;2.00;;;19.30;1.00;;;;;;5082127;28;20184;-82
2023/08/04 11:35:53;;;;;;;3.28;1.98;;;19.30;99.90;;;;;;5082396;28;20264;-82
2023/08/04 11:38:18;;;;;;;2.30;2.10;;;19.30;99.90;;;;;;5082140;28;20434;-81
2023/08/04 11:41:00;;;;;;;2.97;1.90;;;19.30;1.00;;;;;;5063779;28;20200;-82
2023/08/04 11:43:26;;;;;;;3.38;2.00;;;19.30;1.00;;;;;;5082006;28;20303;-82
2023/08/04 11:45:54;;;;;;;2.03;1.70;;;19.30;99.90;;;;;;5081975;28;20169;-82
2023/08/04 11:48:19;;;;;;;3.60;1.70;;;19.30;99.90;;;;;;5063229;28;20215;-82
2023/08/04 11:50:48;;;;;;;1.90;1.70;;;19.30;1.00;;;;;;5081649;28;20172;-81
2023/08/04 11:53:15;;;;;;;2.35;1.60;;;19.30;1.00;;;;;;5062865;28;20655;-82
2023/08/04 11:55:58;;;;;;;2.60;1.63;;;19.40;1.00;;;;;;5082830;28;20564;-84
2023/08/04 11:58:40;;;;;;;2.30;1.83;;;19.40;1.00;;;;;;5063904;28;20200;-82
2023/08/04 12:01:23;;;;;;;1.70;1.55;;;19.40;66.70;;;;;;5082744;28;20197;-81
2023/08/04 12:03:49;;;;;;;2.40;1.60;;;19.40;1.00;;;;;;5063783;28;20176;-82
2023/08/04 12:06:18;;;;;;;1.70;1.55;;;19.30;99.90;;;;;;5081448;28;20169;-82
2023/08/04 12:08:51;;;;;;;2.72;1.48;;;19.30;99.90;;;;;;5063707;28;20175;-82
2023/08/04 12:11:18;;;;;;;1.83;1.60;;;19.30;99.90;;;;;;5063501;28;20176;-82
2023/08/04 12:13:44;;;;;;;2.25;1.60;;;19.30;1.00;;;;;;5081530;28;20177;-83
2023/08/04 12:16:10;;;;;;;2.38;1.60;;;19.30;1.00;;;;;;5064137;28;20176;-82
2023/08/04 12:18:37;;;;;;;1.55;1.45;;;19.20;99.90;;;;;;5082363;28;20176;-82
2023/08/04 12:21:03;;;;;;;1.63;1.50;;;19.20;99.90;;;;;;5080962;28;20212;-82
2023/08/04 12:23:28;;;;;;;1.85;1.60;;;19.10;1.00;;;;;;5061760;28;20176;-83
2023/08/04 12:25:54;;;;;;;1.75;1.50;;;19.20;99.90;;;;;;5079820;28;20172;-82
2023/08/04 12:28:19;;;;;;;1.92;1.60;;;19.10;1.00;;;;;;5061283;28;20193;-82
2023/08/04 12:30:45;;;;;;;2.75;1.50;;;19.10;99.90;;;;;;5061304;28;20188;-82
2023/08/04 12:33:11;;;;;;;2.45;1.60;;;19.10;1.00;;;;;;5061522;28;20177;-82
2023/08/04 12:35:36;;;;;;;2.10;1.55;;;19.00;99.90;;;;;;5061818;28;20180;-82
2023/08/04 12:38:04;;;;;;;1.88;1.60;;;19.10;1.00;;;;;;5061624;28;20204;-82
2023/08/04 12:40:31;;;;;;;2.15;1.60;;;19.10;99.90;;;;;;5060736;28;20191;-82
2023/08/04 12:42:56;;;;;;;2.60;2.10;;;19.10;1.00;;;;;;5060474;28;20754;-82
2023/08/04 12:45:22;;;;;;;2.53;1.70;;;19.10;99.90;;;;;;5061064;28;20215;-82